Latest Weather Observations for Tindal

IDD60801

Issued at 4:51 am CST Thursday 6 October 2022 (issued every 10 minutes, with the page automatically refreshed every 10 minutes)

About weather observations | Map of weather stations | Latest weather observations for NT | Other Formats
Station Details ID: 014932 Name: TINDAL RAAF Lat: -14.52 Lon: 132.38 Height: 133.6 m
Data from the previous 72 hours. | See also: Recent months at Tindal
Date/Time
CST
Temp
°C
App
Temp
°C
Dew
Point
°C
Rel
Hum
%
Delta-T
°C
Wind Press
QNH
hPa
Press
MSL
hPa
Rain since
9am
mm
Dir  Spd
km/h
Gust
km/h
Spd
kts
Gust
kts
06/04:30am 28.1 31.2 21.4 67 4.5 NW 7 11 4 6 1011.8 1010.8 0.0
06/04:00am 27.9 31.7 20.2 63 5.1 CALM 0 0 0 0 1011.4 1010.4 0.0
06/03:30am 27.9 31.6 19.9 61 5.3 CALM 0 0 0 0 1011.4 1010.4 0.0
06/03:00am 28.0 31.6 19.8 61 5.4 CALM 0 0 0 0 1011.3 1010.3 0.0
06/02:30am 28.3 31.9 19.8 60 5.6 CALM 0 0 0 0 1011.1 1010.1 0.0
06/02:00am 28.6 29.8 19.8 59 5.8 NE 13 17 7 9 1011.1 1010.1 0.0
06/01:30am 28.7 30.1 19.6 58 6.0 E 11 15 6 8 1010.7 1009.7 0.0
06/01:00am 28.9 29.8 19.2 55 6.3 ENE 13 19 7 10 1010.8 1009.8 0.0
06/12:30am 29.0 29.3 18.7 53 6.7 ENE 15 19 8 10 1011.0 1010.0 0.0
06/12:00am 28.8 29.5 18.0 52 6.9 ENE 11 13 6 7 1011.1 1010.1 0.0
 
Date/Time
CST
Temp
°C
App
Temp
°C
Dew
Point
°C
Rel
Hum
%
Delta-T
°C
Wind Press
QNH
hPa
Press
MSL
hPa
Rain since
9am
mm
Dir  Spd
km/h
Gust
km/h
Spd
kts
Gust
kts
05/11:30pm 28.8 30.0 17.3 49 7.3 ENE 7 7 4 4 1011.4 1010.4 0.0
05/11:00pm 28.8 31.3 17.3 49 7.3 CALM 0 0 0 0 1011.5 1010.5 0.0
05/10:30pm 28.2 30.0 18.3 55 6.4 ESE 6 7 3 4 1011.4 1010.4 0.0
05/10:00pm 27.9 29.1 17.4 52 6.6 ENE 7 7 4 4 1011.2 1010.2 0.0
05/09:30pm 29.6 31.7 17.1 47 7.9 ENE 2 6 1 3 1011.0 1010.0 0.0
05/09:00pm 30.4 32.3 16.8 44 8.6 ENE 2 6 1 3 1010.7 1009.7 0.0
05/08:30pm 31.0 31.9 16.6 42 9.1 ENE 7 9 4 5 1010.3 1009.3 0.0
05/08:00pm 31.9 31.9 16.2 38 9.9 ENE 11 13 6 7 1010.0 1009.0 0.0
05/07:30pm 32.3 32.5 15.7 36 10.4 ENE 9 11 5 6 1009.7 1008.7 0.0
05/07:00pm 33.6 32.8 15.1 33 11.5 ENE 13 17 7 9 1009.3 1008.2 0.0
05/06:30pm 34.4 33.5 14.8 30 12.2 ENE 13 17 7 9 1008.9 1007.8 0.0
05/06:00pm 35.5 34.2 14.7 28 13.0 E 15 20 8 11 1008.5 1007.4 0.0
05/05:30pm 35.7 35.0 14.4 28 13.3 ESE 11 15 6 8 1008.2 1007.1 0.0
05/05:00pm 36.1 34.2 14.1 26 13.6 E 17 22 9 12 1007.9 1006.9 0.0
05/04:30pm 36.0 35.4 14.6 27 13.4 ENE 11 20 6 11 1008.1 1007.0 0.0
05/04:00pm 35.3 34.3 14.6 29 12.9 ESE 13 20 7 11 1008.3 1007.2 0.0
05/03:30pm 35.4 35.0 15.2 30 12.7 E 11 20 6 11 1008.6 1007.5 0.0
05/03:00pm 35.4 34.6 15.2 30 12.7 E 13 24 7 13 1008.9 1007.8 0.0
05/02:30pm 35.4 34.3 15.2 30 12.7 NE 15 24 8 13 1009.2 1008.1 0.0
05/02:00pm 35.7 33.9 15.4 29 12.8 ENE 19 28 10 15 1009.6 1008.6 0.0
05/01:30pm 35.0 34.5 15.8 31 12.2 NE 13 22 7 12 1010.2 1009.2 0.0
05/01:00pm 34.3 32.6 15.7 32 11.7 ENE 19 33 10 18 1010.6 1009.6 0.0
05/12:31pm 34.6 34.5 16.9 35 11.4 ENE 13 28 7 15 1011.2 1010.2 0.0
05/12:30pm 34.7 34.4 16.5 33 11.6 ENE 13 28 7 15 1011.2 1010.2 0.0
05/12:00pm 33.7 33.4 17.4 37 10.5 E 15 28 8 15 1011.7 1010.7 0.0
05/11:30am 33.8 33.7 17.9 38 10.3 E 15 24 8 13 1012.5 1011.5 0.0
05/11:00am 32.5 33.0 18.3 43 9.2 ENE 13 20 7 11 1013.0 1012.0 0.0
05/10:30am 31.9 31.4 17.8 43 9.1 ESE 17 24 9 13 1013.4 1012.4 0.0
05/10:00am 31.3 31.9 18.6 46 8.3 ENE 13 20 7 11 1013.5 1012.5 0.0
05/09:30am 29.8 31.2 20.4 57 6.2 ESE 13 17 7 9 1013.5 1012.5 0.0
05/09:00am 28.2 30.3 21.0 65 4.8 ESE 11 15 6 8 1013.4 1012.4 2.4
05/08:30am 26.6 28.8 21.1 72 3.7 ESE 11 15 6 8 1013.2 1012.2 2.4
05/08:00am 25.5 27.2 21.6 79 2.6 E 15 17 8 9 1012.8 1011.8 2.4
05/07:30am 24.3 26.2 21.4 84 1.9 ESE 13 15 7 8 1012.3 1011.3 2.4
05/07:00am 22.9 26.0 21.0 89 1.2 WSW 6 9 3 5 1011.5 1010.5 2.4
05/06:30am 22.1 24.8 20.6 91 1.0 WSW 7 9 4 5 1010.9 1009.9 2.4
05/06:00am 22.3 26.3 20.6 90 1.1 CALM 0 6 0 3 1010.6 1009.6 2.4
05/05:30am 22.5 26.5 20.6 89 1.2 CALM 0 0 0 0 1010.3 1009.3 2.4
05/05:00am 22.7 26.7 20.6 88 1.4 CALM 0 0 0 0 1010.0 1009.0 2.4
05/04:30am 22.9 27.0 20.8 88 1.4 CALM 0 0 0 0 1009.7 1008.7 2.4
05/04:00am 23.2 27.4 20.9 87 1.5 CALM 0 0 0 0 1009.5 1008.5 2.4
05/03:30am 23.2 27.3 20.7 86 1.6 CALM 0 6 0 3 1009.8 1008.8 2.4
05/03:00am 23.5 27.6 20.8 85 1.8 CALM 0 0 0 0 1009.7 1008.7 2.4
05/02:30am 23.6 27.8 20.9 85 1.8 CALM 0 0 0 0 1010.1 1009.1 2.4
05/02:00am 23.5 26.3 20.8 85 1.8 W 7 9 4 5 1010.6 1009.6 2.4
05/01:30am 23.8 26.7 21.1 85 1.8 WNW 7 7 4 4 1011.3 1010.3 2.4
05/01:00am 23.9 28.2 21.2 85 1.8 CALM 0 0 0 0 1011.7 1010.7 2.4
05/12:30am 24.1 28.3 21.0 83 2.0 CALM 0 0 0 0 1012.1 1011.1 2.4
05/12:00am 24.3 27.6 21.4 84 1.9 SSE 6 7 3 4 1012.4 1011.4 2.4
 
Date/Time
CST
Temp
°C
App
Temp
°C
Dew
Point
°C
Rel
Hum
%
Delta-T
°C
Wind Press
QNH
hPa
Press
MSL
hPa
Rain since
9am
mm
Dir  Spd
km/h
Gust
km/h
Spd
kts
Gust
kts
04/11:30pm 24.6 27.9 21.5 83 2.1 ESE 6 7 3 4 1012.9 1011.9 2.4
04/11:00pm 24.5 27.7 21.6 84 1.9 SE 7 9 4 5 1013.0 1012.0 2.4
04/10:30pm 25.0 28.0 20.9 78 2.7 N 6 7 3 4 1012.7 1011.7 2.4
04/10:00pm 25.0 29.2 20.9 78 2.7 CALM 0 0 0 0 1012.5 1011.5 2.4
04/09:30pm 24.6 28.0 20.9 80 2.4 SW 4 7 2 4 1012.0 1011.0 2.4
04/09:00pm 24.5 27.3 20.8 80 2.4 SW 7 11 4 6 1011.8 1010.8 2.4
04/08:30pm 24.7 27.6 21.0 80 2.4 NNW 7 11 4 6 1011.2 1010.2 2.4
04/08:00pm 24.7 27.2 21.0 80 2.4 NW 9 11 5 6 1011.1 1010.1 2.4
04/07:30pm 25.0 27.1 20.9 78 2.7 NNE 11 17 6 9 1010.9 1009.9 2.4
04/07:00pm 25.0 26.7 20.9 78 2.7 NNE 13 20 7 11 1010.8 1009.8 2.4
04/06:30pm 24.7 26.4 21.0 80 2.4 N 13 19 7 10 1011.0 1010.0 2.4
04/06:00pm 24.4 24.9 21.1 82 2.2 NNE 20 26 11 14 1010.8 1009.8 2.4
04/05:30pm 24.6 25.2 21.3 82 2.2 N 20 30 11 16 1010.9 1009.9 2.4
04/05:00pm 25.6 24.6 20.4 73 3.4 N 26 37 14 20 1010.2 1009.2 2.4
04/04:30pm 25.5 24.7 20.1 72 3.5 N 24 33 13 18 1009.6 1008.6 2.4
04/04:00pm 27.3 26.8 19.9 64 4.8 N 22 32 12 17 1009.5 1008.5 2.4
04/03:30pm 27.3 27.2 19.6 62 5.0 N 19 28 10 15 1009.1 1008.0 2.4
04/03:00pm 27.9 27.9 18.9 58 5.8 NNE 17 26 9 14 1008.9 1007.8 2.4
04/02:40pm 26.4 26.4 20.9 72 3.6 NE 22 30 12 16 1009.1 1008.0 2.4
04/02:30pm 26.1 24.3 20.4 71 3.8 NE 30 37 16 20 1009.6 1008.6 2.0
04/02:20pm 26.1 23.7 20.0 69 4.0 NE 32 43 17 23 1009.5 1008.5 0.8
04/02:00pm 30.4 29.7 19.4 51 7.2 NE 22 37 12 20 1009.3 1008.2 0.0
04/01:30pm 33.6 33.8 18.5 40 9.9 SW 15 28 8 15 1009.2 1008.1 0.0
04/01:00pm 33.4 32.1 19.1 42 9.4 S 24 33 13 18 1009.4 1008.4 0.0
04/12:30pm 32.0 31.1 19.9 48 8.0 SSW 24 33 13 18 1010.3 1009.3 0.0
04/12:00pm 31.1 30.4 19.4 49 7.7 SSW 22 35 12 19 1011.2 1010.2 0.0
04/11:30am 31.9 32.5 20.2 50 7.8 WSW 17 22 9 12 1011.8 1010.8 0.0
04/11:00am 32.2 33.8 20.8 51 7.7 WSW 13 22 7 12 1012.1 1011.1 0.0
04/10:30am 30.7 32.6 20.6 54 6.7 WSW 11 17 6 9 1012.7 1011.7 0.0
04/10:00am 30.2 31.8 20.7 56 6.3 W 13 17 7 9 1012.9 1011.9 0.0
04/09:30am 29.7 31.2 20.5 57 6.1 NW 13 19 7 10 1013.0 1012.0 0.0
04/09:00am 29.2 30.6 20.4 59 5.8 NNW 13 20 7 11 1012.9 1011.9 0.0
04/08:30am 28.6 29.6 20.3 60 5.5 NW 15 19 8 10 1012.7 1011.7 0.0
04/08:00am 28.2 29.9 20.2 62 5.3 NW 11 15 6 8 1012.5 1011.5 0.0
04/07:30am 28.2 30.1 20.5 63 5.1 NW 11 13 6 7 1012.2 1011.2 0.0
04/07:00am 27.5 30.2 20.6 66 4.6 NW 7 7 4 4 1011.8 1010.8 0.0
04/06:30am 27.2 29.4 20.5 67 4.4 W 9 11 5 6 1011.4 1010.4 0.0
04/06:00am 27.7 29.9 20.3 64 4.9 NW 9 11 5 6 1011.1 1010.1 0.0
04/05:30am 27.7 29.9 20.5 65 4.8 NNW 9 11 5 6 1010.7 1009.7 0.0
04/05:00am 27.9 29.4 20.5 64 4.9 NNW 13 15 7 8 1010.2 1009.2 0.0
04/04:30am 28.1 29.6 20.6 63 5.0 NNW 13 19 7 10 1009.8 1008.8 0.0
04/04:00am 28.2 29.9 21.0 65 4.8 N 13 20 7 11 1009.5 1008.5 0.0
04/03:30am 28.2 29.9 21.0 65 4.8 N 13 17 7 9 1009.2 1008.1 0.0
04/03:00am 28.4 29.5 21.2 65 4.8 NNW 17 20 9 11 1009.2 1008.1 0.0
04/02:30am 28.5 29.9 21.0 64 5.0 NNW 15 19 8 10 1008.6 1007.5 0.0
04/02:00am 29.0 28.6 21.0 62 5.3 NW 24 30 13 16 1008.6 1007.5 0.0
04/01:30am 29.1 30.1 19.4 55 6.4 NW 13 19 7 10 1008.7 1007.6 0.0
04/01:00am 29.6 30.7 18.1 50 7.4 WNW 9 20 5 11 1008.7 1007.6 0.0
04/12:30am 28.1 30.4 16.7 50 7.2 CALM 0 0 0 0 1008.6 1007.5 0.0
04/12:00am 28.2 30.4 16.5 49 7.3 CALM 0 0 0 0 1008.8 1007.7 0.0
 
Date/Time
CST
Temp
°C
App
Temp
°C
Dew
Point
°C
Rel
Hum
%
Delta-T
°C
Wind Press
QNH
hPa
Press
MSL
hPa
Rain since
9am
mm
Dir  Spd
km/h
Gust
km/h
Spd
kts
Gust
kts
03/11:30pm 28.9 31.2 16.8 48 7.6 CALM 0 0 0 0 1008.7 1007.6 0.0
03/11:00pm 29.3 31.3 16.1 44 8.2 CALM 0 0 0 0 1008.8 1007.7 0.0
03/10:30pm 30.1 32.1 16.1 42 8.8 CALM 0 0 0 0 1008.9 1007.8 0.0
03/10:00pm 30.6 32.7 16.2 41 9.0 CALM 0 0 0 0 1008.9 1007.8 0.0
03/09:30pm 30.9 32.8 15.7 39 9.5 CALM 0 0 0 0 1008.8 1007.7 0.0
03/09:00pm 31.5 32.0 15.5 38 10.0 WNW 7 9 4 5 1008.6 1007.5 0.0
03/08:30pm 31.4 31.5 15.4 38 10.0 NW 9 9 5 5 1008.4 1007.3 0.0
03/08:00pm 32.0 31.7 15.5 37 10.3 NW 11 13 6 7 1008.1 1007.0 0.0
03/07:30pm 33.1 32.5 15.6 35 11.0 NNW 13 15 7 8 1007.5 1006.5 0.0
03/07:00pm 33.8 32.7 15.3 33 11.6 NNW 15 17 8 9 1007.1 1006.1 0.0
03/06:30pm 34.8 34.0 15.2 31 12.3 NNW 13 17 7 9 1006.5 1005.5 0.0
03/06:00pm 35.5 34.4 14.2 28 13.2 NNW 13 17 7 9 1006.2 1005.2 0.0
03/05:30pm 35.9 34.5 13.4 26 13.8 NW 13 20 7 11 1005.7 1004.7 0.0
03/05:00pm 36.9 36.1 13.0 24 14.6 WNW 9 17 5 9 1005.4 1004.4 0.0
03/04:30pm 36.9 35.4 13.0 24 14.7 NNW 13 19 7 10 1005.4 1004.4 0.0
03/04:00pm 36.9 35.2 12.4 23 14.9 NNW 13 17 7 9 1005.4 1004.4 0.0
03/03:30pm 36.3 34.8 13.1 25 14.2 WNW 13 20 7 11 1005.6 1004.6 0.0
03/03:00pm 36.2 34.3 13.0 24 14.2 NNW 15 20 8 11 1005.8 1004.8 0.0
03/02:30pm 36.2 34.7 13.0 24 14.2 NW 13 20 7 11 1006.3 1005.3 0.0
03/02:00pm 35.5 35.1 13.1 26 13.7 N 7 15 4 8 1006.8 1005.8 0.0
03/01:30pm 36.0 34.6 13.5 26 13.9 WNW 13 20 7 11 1007.4 1006.4 0.0
03/01:00pm 34.2 34.0 13.6 28 12.6 NW 7 13 4 7 1007.9 1006.9 0.0
03/12:30pm 34.1 33.7 15.1 32 11.9 NNW 11 19 6 10 1008.8 1007.7 0.0
03/12:00pm 33.0 32.9 15.0 33 11.2 W 9 15 5 8 1009.3 1008.2 0.0
03/11:30am 32.7 32.5 15.7 36 10.7 NW 11 20 6 11 1009.7 1008.7 0.0
03/11:00am 32.1 31.6 16.0 38 10.1 NW 13 24 7 13 1010.1 1009.1 0.0
03/10:30am 30.7 29.9 17.0 43 8.7 WNW 17 24 9 13 1010.7 1009.7 0.0
03/10:00am 29.9 30.0 18.3 49 7.5 WNW 15 19 8 10 1010.9 1009.9 0.0
03/09:30am 29.4 29.7 18.8 53 6.9 NW 15 20 8 11 1011.1 1010.1 0.0
03/09:00am 29.3 29.7 19.0 53 6.7 NNW 15 20 8 11 1011.1 1010.1 0.0
03/08:30am 28.3 28.8 19.2 57 5.9 NW 15 20 8 11 1010.7 1009.7 0.0
03/08:00am 27.3 28.5 18.3 58 5.8 WNW 9 13 5 7 1010.7 1009.7 0.0
03/07:30am 26.1 26.9 17.2 58 5.6 WSW 9 11 5 6 1009.9 1008.9 0.0
03/07:00am 26.2 27.0 17.3 58 5.6 W 9 11 5 6 1009.9 1008.9 0.0
03/06:30am 26.2 26.8 16.7 56 5.9 NW 9 13 5 7 1009.7 1008.7 0.0
03/06:00am 26.3 26.9 16.8 56 5.9 NW 9 11 5 6 1009.7 1008.7 0.0
03/05:30am 26.6 27.1 16.5 54 6.3 NNW 9 13 5 7 1009.5 1008.5 0.0
03/05:00am 27.0 27.4 16.3 52 6.6 N 9 13 5 7 1009.2 1008.1 0.0

Other formats

Comma delimited format used in spreadsheet applications
http://www.bom.gov.au/fwo/IDD60801/IDD60801.94131.axf

JavaScript Object Notation format (JSON) in row-major order
http://www.bom.gov.au/fwo/IDD60801/IDD60801.94131.json

Data quality

Most of these data are generated automatically and are frequently updated. Quality checks on data are not normally performed. It is possible for incorrect values to appear. Refer to information at About Latest Weather Observations and please check the disclaimer before using these data.